createdAt,value
2022-11-13T00:02:14.811Z,11.88
2022-11-13T00:05:06.301Z,11.90
2022-11-13T00:07:56.939Z,11.88
2022-11-13T00:10:47.585Z,11.89
2022-11-13T00:13:38.679Z,11.87
2022-11-13T00:16:29.478Z,11.86
2022-11-13T00:19:20.215Z,11.90
2022-11-13T00:22:10.861Z,11.90
2022-11-13T00:25:01.456Z,11.90
2022-11-13T00:27:52.339Z,11.92
2022-11-13T00:30:42.862Z,11.94
2022-11-13T00:36:44.163Z,11.97
2022-11-13T00:39:34.862Z,11.95
2022-11-13T00:42:25.796Z,11.95
2022-11-13T00:45:16.527Z,11.92
2022-11-13T00:48:07.766Z,11.93
2022-11-13T00:50:58.391Z,11.97
2022-11-13T00:53:48.841Z,11.98
2022-11-13T00:56:39.643Z,11.98
2022-11-13T00:59:30.168Z,11.99
2022-11-13T01:02:20.613Z,12.02
2022-11-13T01:05:11.727Z,12.04
2022-11-13T01:08:02.629Z,12.04
2022-11-13T01:10:53.949Z,12.03
2022-11-13T01:13:46.908Z,11.99
2022-11-13T01:16:37.250Z,11.95
2022-11-13T01:19:27.775Z,11.94
2022-11-13T01:22:18.579Z,11.96
2022-11-13T01:25:10.533Z,11.96
2022-11-13T01:28:01.319Z,11.95
2022-11-13T01:30:51.815Z,11.94
2022-11-13T01:33:42.800Z,11.92
2022-11-13T01:36:34.628Z,11.94
2022-11-13T01:39:25.510Z,11.92
2022-11-13T01:42:16.468Z,11.88
2022-11-13T01:45:45.089Z,11.87
2022-11-13T01:48:39.811Z,11.85
2022-11-13T01:51:34.276Z,11.82
2022-11-13T01:54:27.486Z,11.85
2022-11-13T01:57:20.673Z,11.83
2022-11-13T02:00:14.318Z,11.83
2022-11-13T02:03:05.686Z,11.85
2022-11-13T02:05:57.798Z,11.86
2022-11-13T02:08:50.266Z,11.87
2022-11-13T02:11:41.457Z,11.84
2022-11-13T02:14:32.403Z,11.79
2022-11-13T02:17:29.314Z,11.74
2022-11-13T02:20:22.653Z,11.69
2022-11-13T02:23:22.196Z,11.65
2022-11-13T02:26:14.170Z,11.66
2022-11-13T02:29:04.900Z,11.64
2022-11-13T02:31:55.935Z,11.62
2022-11-13T02:34:46.228Z,11.59
2022-11-13T02:37:36.932Z,11.59
2022-11-13T02:40:28.583Z,11.60
2022-11-13T02:43:18.952Z,11.65
2022-11-13T02:46:09.550Z,11.67
2022-11-13T02:49:00.514Z,11.67
2022-11-13T02:51:51.472Z,11.66
2022-11-13T02:54:41.941Z,11.63
2022-11-13T02:57:32.567Z,11.64
2022-11-13T03:00:23.281Z,11.61
2022-11-13T03:03:14.049Z,11.58
2022-11-13T03:06:04.893Z,11.58
2022-11-13T03:08:55.533Z,11.60
2022-11-13T03:11:47.006Z,11.64
2022-11-13T03:14:37.963Z,11.67
2022-11-13T03:17:28.665Z,11.69
2022-11-13T03:20:19.708Z,11.70
2022-11-13T03:23:10.122Z,11.68
2022-11-13T03:26:05.724Z,11.66
2022-11-13T03:28:54.705Z,11.62
2022-11-13T03:31:45.363Z,11.57
2022-11-13T03:34:36.365Z,11.57
2022-11-13T03:37:27.246Z,11.58
2022-11-13T03:40:18.244Z,11.57
2022-11-13T03:43:08.958Z,11.58
2022-11-13T03:45:59.814Z,11.59
2022-11-13T03:48:50.292Z,11.62
2022-11-13T03:51:40.810Z,11.64
2022-11-13T03:54:31.775Z,11.65
2022-11-13T03:57:22.957Z,11.66
2022-11-13T04:00:16.800Z,11.65
2022-11-13T04:03:07.949Z,11.65
2022-11-13T04:05:58.214Z,11.62
2022-11-13T04:08:49.021Z,11.60
2022-11-13T04:11:39.883Z,11.63
2022-11-13T04:14:30.665Z,11.64
2022-11-13T04:17:21.164Z,11.64
2022-11-13T04:20:13.503Z,11.62
2022-11-13T04:23:12.666Z,11.58
2022-11-13T04:26:03.618Z,11.56
2022-11-13T04:28:54.142Z,11.57
2022-11-13T04:31:45.140Z,11.59
2022-11-13T04:34:35.918Z,11.56
2022-11-13T04:37:26.316Z,11.52
2022-11-13T04:40:16.927Z,11.49
2022-11-13T04:43:07.886Z,11.49
2022-11-13T04:45:58.207Z,11.53
2022-11-13T04:48:49.049Z,11.54
2022-11-13T04:51:39.420Z,11.56
2022-11-13T04:54:30.250Z,11.59
2022-11-13T04:57:21.414Z,11.62
2022-11-13T05:00:14.466Z,11.66
2022-11-13T05:03:04.820Z,11.68
2022-11-13T05:05:55.263Z,11.67
2022-11-13T05:08:47.680Z,11.66
2022-11-13T05:11:38.845Z,11.65
2022-11-13T05:14:29.397Z,11.65
2022-11-13T05:17:20.122Z,11.69
2022-11-13T05:20:12.750Z,11.71
2022-11-13T05:23:03.142Z,11.74
2022-11-13T05:25:54.612Z,11.78
2022-11-13T05:28:45.985Z,11.78
2022-11-13T05:31:36.786Z,11.77
2022-11-13T05:34:27.641Z,11.75
2022-11-13T05:37:18.344Z,11.74
2022-11-13T05:40:12.836Z,11.73
2022-11-13T05:43:03.796Z,11.73
2022-11-13T05:46:00.054Z,11.77
2022-11-13T05:48:55.853Z,11.76
2022-11-13T05:51:47.009Z,11.74
2022-11-13T05:54:37.977Z,11.76
2022-11-13T05:57:28.397Z,11.78
2022-11-13T06:00:21.412Z,11.81
2022-11-13T06:03:12.131Z,11.82
2022-11-13T06:06:02.753Z,11.80
2022-11-13T06:08:54.328Z,11.79
2022-11-13T06:11:45.285Z,11.77
2022-11-13T06:14:36.090Z,11.75
2022-11-13T06:17:26.693Z,11.79
2022-11-13T06:20:17.472Z,11.79
2022-11-13T06:23:08.329Z,11.79
2022-11-13T06:26:05.124Z,11.81
2022-11-13T06:28:56.581Z,11.83
2022-11-13T06:31:47.479Z,11.84
2022-11-13T06:34:37.950Z,11.85
2022-11-13T06:37:31.471Z,11.81
2022-11-13T06:40:25.729Z,11.79
2022-11-13T06:43:16.401Z,11.78
2022-11-13T06:46:09.198Z,11.79
2022-11-13T06:49:00.756Z,11.82
2022-11-13T06:51:51.683Z,11.82
2022-11-13T06:54:42.378Z,11.82
2022-11-13T06:57:33.096Z,11.84
2022-11-13T07:00:24.105Z,11.85
2022-11-13T07:03:19.288Z,11.86
2022-11-13T07:06:14.081Z,11.87
2022-11-13T07:09:04.587Z,11.85
2022-11-13T07:11:55.134Z,11.86
2022-11-13T07:14:45.889Z,11.84
2022-11-13T07:17:36.925Z,11.85
2022-11-13T07:20:27.397Z,11.89
2022-11-13T07:23:17.844Z,11.88
2022-11-13T07:26:09.111Z,11.90
2022-11-13T07:28:59.800Z,11.92
2022-11-13T07:31:50.259Z,11.94
2022-11-13T07:34:40.682Z,11.97
2022-11-13T07:37:31.409Z,12.00
2022-11-13T07:40:22.396Z,12.02
2022-11-13T07:43:13.123Z,12.01
2022-11-13T07:46:04.111Z,12.02
2022-11-13T07:48:55.016Z,12.01
2022-11-13T07:51:45.925Z,12.03
2022-11-13T07:54:37.522Z,12.08
2022-11-13T07:57:28.385Z,12.07
2022-11-13T08:00:20.669Z,12.06
2022-11-13T08:03:13.853Z,12.08
2022-11-13T08:06:06.222Z,12.12
2022-11-13T08:08:56.896Z,12.15
2022-11-13T08:11:47.501Z,12.13
2022-11-13T08:14:37.896Z,12.15
2022-11-13T08:17:28.448Z,12.16
2022-11-13T08:20:20.041Z,12.21
2022-11-13T08:23:11.207Z,12.27
2022-11-13T08:26:07.130Z,12.28
2022-11-13T08:28:57.936Z,12.29
2022-11-13T08:31:48.946Z,12.31
2022-11-13T08:34:39.498Z,12.35
2022-11-13T08:37:30.275Z,12.34
2022-11-13T08:40:21.592Z,12.29
2022-11-13T08:43:12.450Z,12.23
2022-11-13T08:46:03.202Z,12.22
2022-11-13T08:48:53.957Z,12.24
2022-11-13T08:51:44.582Z,12.24
2022-11-13T08:54:35.467Z,12.25
2022-11-13T08:57:26.169Z,12.25
2022-11-13T09:00:17.807Z,12.29
2022-11-13T09:03:10.364Z,12.32
2022-11-13T09:06:00.979Z,12.34
2022-11-13T09:08:51.896Z,12.36
2022-11-13T09:11:42.268Z,12.39
2022-11-13T09:14:33.073Z,12.39
2022-11-13T09:17:23.724Z,12.29
2022-11-13T09:20:15.600Z,12.22
2022-11-13T09:23:09.995Z,12.24
2022-11-13T09:26:03.901Z,12.28
2022-11-13T09:28:54.777Z,12.33
2022-11-13T09:31:45.777Z,12.35
2022-11-13T09:34:36.286Z,12.36
2022-11-13T09:37:27.120Z,12.36
2022-11-13T09:40:28.187Z,12.29
2022-11-13T09:43:28.720Z,12.22
2022-11-13T09:46:27.695Z,12.20
2022-11-13T09:49:20.473Z,12.16
2022-11-13T09:52:16.625Z,12.20
2022-11-13T09:55:10.762Z,12.18
2022-11-13T09:58:08.284Z,12.20
2022-11-13T10:00:59.843Z,12.24
2022-11-13T10:04:02.364Z,12.28
2022-11-13T10:07:09.884Z,12.29
2022-11-13T10:10:17.036Z,12.23
2022-11-13T10:13:12.579Z,12.16
2022-11-13T10:16:05.329Z,12.15
2022-11-13T10:19:01.844Z,12.09
2022-11-13T10:22:31.170Z,12.07
2022-11-13T10:25:16.425Z,12.08
2022-11-13T10:28:43.625Z,12.09
2022-11-13T10:31:26.503Z,12.11
2022-11-13T10:34:18.434Z,12.14
2022-11-13T10:37:28.409Z,12.19
2022-11-13T10:40:28.796Z,12.28
2022-11-13T10:43:22.435Z,12.35
2022-11-13T10:46:22.928Z,12.39
2022-11-13T10:49:21.727Z,12.43
2022-11-13T10:52:21.205Z,12.43
2022-11-13T10:55:22.976Z,12.47
2022-11-13T10:58:18.451Z,12.52
2022-11-13T11:01:23.040Z,12.52
2022-11-13T11:04:21.237Z,12.50
2022-11-13T11:07:20.977Z,12.50
2022-11-13T11:10:34.026Z,12.52
2022-11-13T11:13:25.624Z,12.52
2022-11-13T11:16:22.881Z,12.53
2022-11-13T11:19:16.630Z,12.53
2022-11-13T11:22:16.139Z,12.53
2022-11-13T11:25:13.243Z,12.54
2022-11-13T11:28:12.498Z,12.60
2022-11-13T11:31:11.694Z,12.59
2022-11-13T11:34:11.207Z,12.61
2022-11-13T11:37:08.698Z,12.64
2022-11-13T11:40:05.366Z,12.67
2022-11-13T11:43:02.544Z,12.69
2022-11-13T11:45:54.038Z,12.68
2022-11-13T11:48:44.843Z,12.68
2022-11-13T11:51:43.174Z,12.67
2022-11-13T11:54:43.861Z,12.69
2022-11-13T11:57:49.874Z,12.73
2022-11-13T12:00:48.429Z,12.75
2022-11-13T12:04:07.657Z,12.76
2022-11-13T12:07:15.608Z,12.76
2022-11-13T12:10:25.545Z,12.75
2022-11-13T12:13:28.411Z,12.74
2022-11-13T12:16:27.428Z,12.75
2022-11-13T12:19:29.097Z,12.73
2022-11-13T12:22:36.507Z,12.74
2022-11-13T12:25:35.864Z,12.77
2022-11-13T12:28:40.628Z,12.77
2022-11-13T12:31:47.940Z,12.78
2022-11-13T12:34:43.717Z,12.79
2022-11-13T12:37:42.990Z,12.78
2022-11-13T12:40:44.016Z,12.76
2022-11-13T12:43:54.605Z,12.74
2022-11-13T12:46:46.760Z,12.73
2022-11-13T12:49:38.870Z,12.73
2022-11-13T12:52:30.371Z,12.75
2022-11-13T12:55:30.865Z,12.76
2022-11-13T12:58:26.119Z,12.75
2022-11-13T13:01:21.459Z,12.75
2022-11-13T13:04:35.859Z,12.76
2022-11-13T13:07:43.714Z,12.78
2022-11-13T13:10:46.400Z,12.78
2022-11-13T13:13:45.881Z,12.75
2022-11-13T13:16:37.097Z,12.71
2022-11-13T13:19:30.361Z,12.66
2022-11-13T13:22:31.046Z,12.65
2022-11-13T13:25:29.762Z,12.66
2022-11-13T13:28:24.099Z,12.65
2022-11-13T13:31:23.791Z,12.66
2022-11-13T13:34:38.376Z,12.67
2022-11-13T13:37:38.529Z,12.67
2022-11-13T13:40:39.288Z,12.67
2022-11-13T13:43:45.197Z,12.65
2022-11-13T13:46:36.977Z,12.63
2022-11-13T13:49:28.910Z,12.61
2022-11-13T13:52:28.111Z,12.60
2022-11-13T13:55:26.647Z,12.63
2022-11-13T13:58:20.584Z,12.63
2022-11-13T14:01:19.629Z,12.65
2022-11-13T14:04:16.421Z,12.67
2022-11-13T14:07:19.959Z,12.70
2022-11-13T14:10:19.152Z,12.71
2022-11-13T14:13:15.230Z,12.69
2022-11-13T14:16:09.177Z,12.66
2022-11-13T14:19:06.977Z,12.64
2022-11-13T14:22:01.368Z,12.63
2022-11-13T14:24:55.027Z,12.64
2022-11-13T14:27:45.772Z,12.63
2022-11-13T14:30:36.343Z,12.63
2022-11-13T14:33:36.314Z,12.63
2022-11-13T14:36:31.757Z,12.64
2022-11-13T14:39:27.755Z,12.63
2022-11-13T14:42:26.219Z,12.61
2022-11-13T14:45:20.088Z,12.59
2022-11-13T14:48:22.754Z,12.56
2022-11-13T14:51:27.022Z,12.56
2022-11-13T14:54:53.242Z,12.58
2022-11-13T14:57:51.513Z,12.57
2022-11-13T15:00:42.779Z,12.56
2022-11-13T15:03:34.085Z,12.56
2022-11-13T15:06:26.463Z,12.55
2022-11-13T15:09:18.882Z,12.52
2022-11-13T15:12:13.320Z,12.48
2022-11-13T15:15:04.205Z,12.45
2022-11-13T15:17:55.262Z,12.45
2022-11-13T15:20:46.964Z,12.47
2022-11-13T15:23:37.590Z,12.46
2022-11-13T15:26:28.732Z,12.46
2022-11-13T15:29:19.329Z,12.46
2022-11-13T15:32:13.259Z,12.47
2022-11-13T15:35:05.176Z,12.46
2022-11-13T15:37:56.203Z,12.43
2022-11-13T15:40:46.619Z,12.43
2022-11-13T15:43:37.540Z,12.40
2022-11-13T15:46:28.185Z,12.39
2022-11-13T15:49:18.857Z,12.42
2022-11-13T15:52:10.379Z,12.42
2022-11-13T15:55:02.443Z,12.42
2022-11-13T15:57:53.505Z,12.44
2022-11-13T16:00:46.173Z,12.43
2022-11-13T16:03:40.182Z,12.45
2022-11-13T16:06:31.521Z,12.44
2022-11-13T16:09:22.255Z,12.40
2022-11-13T16:12:14.002Z,12.39
2022-11-13T16:15:05.218Z,12.36
2022-11-13T16:17:58.796Z,12.31
2022-11-13T16:20:49.696Z,12.27
2022-11-13T16:23:40.864Z,12.20
2022-11-13T16:26:31.847Z,12.17
2022-11-13T16:29:24.854Z,12.17
2022-11-13T16:32:18.062Z,12.17
2022-11-13T16:35:10.579Z,12.15
2022-11-13T16:38:01.490Z,12.16
2022-11-13T16:40:52.484Z,12.16
2022-11-13T16:43:43.152Z,12.12
2022-11-13T16:46:35.491Z,12.09
2022-11-13T16:49:26.067Z,12.08
2022-11-13T16:52:16.693Z,12.09
2022-11-13T16:55:08.929Z,12.13
2022-11-13T16:57:59.945Z,12.11
2022-11-13T17:00:50.511Z,12.08
2022-11-13T17:03:40.863Z,12.08
2022-11-13T17:06:32.614Z,12.09
2022-11-13T17:09:23.319Z,12.13
2022-11-13T17:12:17.004Z,12.14
2022-11-13T17:15:11.576Z,12.13
2022-11-13T17:18:02.227Z,12.11
2022-11-13T17:20:54.959Z,12.05
2022-11-13T17:23:45.842Z,12.06
2022-11-13T17:26:36.570Z,12.10
2022-11-13T17:29:27.940Z,12.11
2022-11-13T17:32:18.953Z,12.13
2022-11-13T17:35:10.508Z,12.14
2022-11-13T17:38:01.174Z,12.15
2022-11-13T17:40:51.595Z,12.15
2022-11-13T17:43:43.449Z,12.13
2022-11-13T17:46:34.382Z,12.12
2022-11-13T17:49:24.805Z,12.11
2022-11-13T17:52:15.559Z,12.12
2022-11-13T17:55:07.773Z,12.15
2022-11-13T17:58:01.881Z,12.14
2022-11-13T18:00:53.888Z,12.12
2022-11-13T18:03:44.868Z,12.12
2022-11-13T18:06:35.293Z,12.15
2022-11-13T18:09:26.006Z,12.17
2022-11-13T18:12:16.445Z,12.16
2022-11-13T18:15:08.497Z,12.18
2022-11-13T18:17:59.112Z,12.16
2022-11-13T18:20:49.909Z,12.17
2022-11-13T18:23:40.637Z,12.20
2022-11-13T18:26:32.467Z,12.18
2022-11-13T18:29:23.426Z,12.17
2022-11-13T18:32:14.548Z,12.15
2022-11-13T18:35:06.226Z,12.16
2022-11-13T18:37:57.356Z,12.15
2022-11-13T18:40:48.160Z,12.13
2022-11-13T18:43:39.295Z,12.11
2022-11-13T18:46:30.871Z,12.09
2022-11-13T18:49:21.804Z,12.08
2022-11-13T18:52:12.817Z,12.10
2022-11-13T18:55:03.769Z,12.08
2022-11-13T18:57:54.733Z,12.07
2022-11-13T19:00:45.663Z,12.07
2022-11-13T19:03:36.753Z,12.06
2022-11-13T19:06:28.093Z,12.05
2022-11-13T19:09:19.870Z,12.01
2022-11-13T19:12:10.945Z,11.98
2022-11-13T19:15:03.017Z,11.97
2022-11-13T19:17:53.770Z,11.97
2022-11-13T19:20:44.398Z,12.02
2022-11-13T19:23:35.355Z,11.99
2022-11-13T19:26:26.801Z,11.98
2022-11-13T19:29:17.401Z,11.99
2022-11-13T19:32:08.121Z,11.98
2022-11-13T19:34:58.678Z,12.00
2022-11-13T19:37:49.330Z,11.98
2022-11-13T19:40:39.931Z,11.97
2022-11-13T19:43:31.838Z,11.95
2022-11-13T19:46:23.230Z,11.95
2022-11-13T19:49:13.914Z,11.95
2022-11-13T19:52:04.814Z,11.93
2022-11-13T19:54:55.367Z,11.91
2022-11-13T19:57:46.448Z,11.93
2022-11-13T20:00:37.493Z,11.92
2022-11-13T20:03:28.753Z,11.91
2022-11-13T20:06:19.788Z,11.89
2022-11-13T20:09:11.053Z,11.88
2022-11-13T20:12:01.993Z,11.85
2022-11-13T20:14:52.576Z,11.85
2022-11-13T20:17:43.548Z,11.89
2022-11-13T20:20:34.454Z,11.89
2022-11-13T20:23:26.081Z,11.89
2022-11-13T20:26:17.157Z,11.90
2022-11-13T20:29:07.845Z,11.90
2022-11-13T20:31:58.915Z,11.88
2022-11-13T20:34:49.646Z,11.85
2022-11-13T20:37:40.107Z,11.83
2022-11-13T20:40:30.710Z,11.81
2022-11-13T20:43:21.281Z,11.81
2022-11-13T20:46:14.493Z,11.84
2022-11-13T20:49:05.354Z,11.83
2022-11-13T20:51:57.443Z,11.83
2022-11-13T20:54:48.372Z,11.80
2022-11-13T20:57:41.067Z,11.81
2022-11-13T21:00:32.030Z,11.79
2022-11-13T21:03:22.883Z,11.75
2022-11-13T21:06:15.839Z,11.73
2022-11-13T21:09:06.669Z,11.71
2022-11-13T21:11:57.501Z,11.70
2022-11-13T21:14:48.535Z,11.72
2022-11-13T21:17:39.116Z,11.77
2022-11-13T21:20:29.988Z,11.75
2022-11-13T21:23:21.055Z,11.75
2022-11-13T21:26:12.141Z,11.76
2022-11-13T21:29:03.153Z,11.76
2022-11-13T21:31:53.946Z,11.77
2022-11-13T21:34:46.685Z,11.75
2022-11-13T21:37:37.512Z,11.73
2022-11-13T21:40:28.214Z,11.70
2022-11-13T21:43:18.728Z,11.71
2022-11-13T21:46:09.449Z,11.74
2022-11-13T21:49:02.585Z,11.75
2022-11-13T21:51:53.408Z,11.74
2022-11-13T21:54:43.882Z,11.75
2022-11-13T21:57:34.762Z,11.75
2022-11-13T22:00:25.568Z,11.75
2022-11-13T22:03:16.346Z,11.71
2022-11-13T22:06:18.696Z,11.69
2022-11-13T22:09:17.669Z,11.68
2022-11-13T22:12:08.776Z,11.68
2022-11-13T22:14:59.550Z,11.71
2022-11-13T22:17:50.078Z,11.72
2022-11-13T22:20:40.631Z,11.72
2022-11-13T22:23:31.310Z,11.75
2022-11-13T22:26:22.962Z,11.75
2022-11-13T22:29:14.743Z,11.72
2022-11-13T22:32:05.554Z,11.70
2022-11-13T22:34:55.838Z,11.67
2022-11-13T22:37:46.615Z,11.65
2022-11-13T22:40:36.886Z,11.68
2022-11-13T22:43:27.309Z,11.68
2022-11-13T22:46:19.425Z,11.69
2022-11-13T22:49:12.101Z,11.73
2022-11-13T22:52:02.332Z,11.76
2022-11-13T22:54:52.492Z,11.76
2022-11-13T22:57:42.913Z,11.73
2022-11-13T23:00:33.553Z,11.72
2022-11-13T23:03:24.026Z,11.71
2022-11-13T23:06:15.924Z,11.67
2022-11-13T23:09:07.511Z,11.66
2022-11-13T23:11:57.969Z,11.71
2022-11-13T23:14:48.979Z,11.68
2022-11-13T23:17:39.811Z,11.68
2022-11-13T23:20:30.129Z,11.67
2022-11-13T23:23:20.833Z,11.65
2022-11-13T23:26:12.887Z,11.60
2022-11-13T23:29:03.466Z,11.57
2022-11-13T23:31:53.989Z,11.51
2022-11-13T23:35:00.503Z,11.46
2022-11-13T23:37:51.779Z,11.46
2022-11-13T23:40:42.354Z,11.48
2022-11-13T23:44:06.611Z,11.46
2022-11-13T23:46:44.115Z,11.44
2022-11-13T23:49:34.942Z,11.41
2022-11-13T23:52:25.648Z,11.42
2022-11-13T23:55:16.992Z,11.42
2022-11-13T23:58:11.173Z,11.39
